Dripping Springs' Hourly Summary for Thursday, March 16, 2017
Hour Temp
(f)
RH
(%)
Solar Rad.
(MJ/m2)
Rainfall
(in)
Wind
(mph)
3/16/2017 12:00 AM 60 91 0 0 6.32
3/16/2017 1:00 AM 59 98 0 0 7.69
3/16/2017 2:00 AM 58 99 0 0 5.99
3/16/2017 3:00 AM 58 100 0 0 6.4
3/16/2017 4:00 AM 57 100 0 0 5.46
3/16/2017 5:00 AM 56 100 0 0 4.6
3/16/2017 6:00 AM 56 100 0 0 4.04
3/16/2017 7:00 AM 56 100 0 0 3.8
3/16/2017 8:00 AM 57 100 0 0 3.75
3/16/2017 9:00 AM 57 100 0.04 0 4.7
3/16/2017 10:00 AM 58 100 0.23 0 6.01
3/16/2017 11:00 AM 59 100 0.46 0 7.03
3/16/2017 12:00 PM 62 100 0.45 0 6.2
3/16/2017 1:00 PM 64 100 0.42 0 6.74
3/16/2017 2:00 PM 67 99 0.96 0 7.01
3/16/2017 3:00 PM 70 84 1.42 0 9.12
3/16/2017 4:00 PM 74 65 1.96 0 8.95
3/16/2017 5:00 PM 75 59 1.65 0 10.54
3/16/2017 6:00 PM 75 60 0.8 0 10.39
3/16/2017 7:00 PM 74 61 0.51 0 9.21
3/16/2017 8:00 PM 72 66 0.09 0 6.94
3/16/2017 9:00 PM 69 81 0 0 7.23
3/16/2017 10:00 PM 68 88 0 0 8.98
3/16/2017 11:00 PM 66 95 0 0 9.66
Data Summary 63 89 8.99 0.00 6.95